sensor_id;sensor_type;location;lat;lon;timestamp;P1;durP1;ratioP1;P2;durP2;ratioP2
59756;SDS011;45631;51.962;5.974;2023-03-21T00:01:52;30.02;;;17.40;;
59756;SDS011;45631;51.962;5.974;2023-03-21T00:04:20;26.58;;;15.80;;
59756;SDS011;45631;51.962;5.974;2023-03-21T00:06:49;30.42;;;17.60;;
59756;SDS011;45631;51.962;5.974;2023-03-21T00:09:18;26.35;;;17.70;;
59756;SDS011;45631;51.962;5.974;2023-03-21T00:11:47;31.58;;;19.02;;
59756;SDS011;45631;51.962;5.974;2023-03-21T00:14:16;26.98;;;17.60;;
59756;SDS011;45631;51.962;5.974;2023-03-21T00:16:46;31.17;;;19.45;;
59756;SDS011;45631;51.962;5.974;2023-03-21T00:19:18;28.08;;;17.65;;
59756;SDS011;45631;51.962;5.974;2023-03-21T00:21:47;30.23;;;18.25;;
59756;SDS011;45631;51.962;5.974;2023-03-21T00:24:33;25.60;;;17.15;;
59756;SDS011;45631;51.962;5.974;2023-03-21T00:27:02;28.77;;;17.85;;
59756;SDS011;45631;51.962;5.974;2023-03-21T00:29:50;34.67;;;18.55;;
59756;SDS011;45631;51.962;5.974;2023-03-21T00:32:19;31.25;;;18.50;;
59756;SDS011;45631;51.962;5.974;2023-03-21T00:34:50;30.60;;;18.63;;
59756;SDS011;45631;51.962;5.974;2023-03-21T00:37:38;28.30;;;17.23;;
59756;SDS011;45631;51.962;5.974;2023-03-21T00:40:07;26.00;;;18.65;;
59756;SDS011;45631;51.962;5.974;2023-03-21T00:42:51;31.42;;;18.52;;
59756;SDS011;45631;51.962;5.974;2023-03-21T00:45:19;27.70;;;18.73;;
59756;SDS011;45631;51.962;5.974;2023-03-21T00:47:47;28.17;;;17.65;;
59756;SDS011;45631;51.962;5.974;2023-03-21T00:50:18;29.33;;;18.00;;
59756;SDS011;45631;51.962;5.974;2023-03-21T00:52:46;28.40;;;18.58;;
59756;SDS011;45631;51.962;5.974;2023-03-21T00:55:16;26.25;;;17.05;;
59756;SDS011;45631;51.962;5.974;2023-03-21T00:57:45;25.38;;;17.30;;
59756;SDS011;45631;51.962;5.974;2023-03-21T01:00:25;26.33;;;16.77;;
59756;SDS011;45631;51.962;5.974;2023-03-21T01:02:53;26.17;;;16.73;;
59756;SDS011;45631;51.962;5.974;2023-03-21T01:05:50;25.90;;;16.27;;
59756;SDS011;45631;51.962;5.974;2023-03-21T01:08:32;26.90;;;16.58;;
59756;SDS011;45631;51.962;5.974;2023-03-21T01:11:18;24.85;;;16.00;;
59756;SDS011;45631;51.962;5.974;2023-03-21T01:13:51;23.80;;;14.88;;
59756;SDS011;45631;51.962;5.974;2023-03-21T01:16:36;24.73;;;15.55;;
59756;SDS011;45631;51.962;5.974;2023-03-21T01:19:11;22.73;;;14.45;;
59756;SDS011;45631;51.962;5.974;2023-03-21T01:21:54;24.75;;;14.93;;
59756;SDS011;45631;51.962;5.974;2023-03-21T01:24:23;25.40;;;14.68;;
59756;SDS011;45631;51.962;5.974;2023-03-21T01:26:51;23.17;;;14.20;;
59756;SDS011;45631;51.962;5.974;2023-03-21T01:29:20;23.77;;;14.68;;
59756;SDS011;45631;51.962;5.974;2023-03-21T01:31:49;23.73;;;14.55;;
59756;SDS011;45631;51.962;5.974;2023-03-21T01:34:17;25.20;;;14.82;;
59756;SDS011;45631;51.962;5.974;2023-03-21T01:36:46;22.45;;;14.07;;
59756;SDS011;45631;51.962;5.974;2023-03-21T01:39:16;22.10;;;13.57;;
59756;SDS011;45631;51.962;5.974;2023-03-21T01:41:44;22.67;;;14.25;;
59756;SDS011;45631;51.962;5.974;2023-03-21T01:44:13;23.77;;;14.88;;
59756;SDS011;45631;51.962;5.974;2023-03-21T01:46:43;26.08;;;15.05;;
59756;SDS011;45631;51.962;5.974;2023-03-21T01:49:33;24.30;;;14.52;;
59756;SDS011;45631;51.962;5.974;2023-03-21T01:52:05;24.63;;;14.65;;
59756;SDS011;45631;51.962;5.974;2023-03-21T01:54:44;24.00;;;15.25;;
59756;SDS011;45631;51.962;5.974;2023-03-21T01:57:15;24.10;;;14.85;;
59756;SDS011;45631;51.962;5.974;2023-03-21T01:59:53;22.13;;;14.93;;
59756;SDS011;45631;51.962;5.974;2023-03-21T02:02:23;25.55;;;15.38;;
59756;SDS011;45631;51.962;5.974;2023-03-21T02:04:54;26.00;;;15.05;;
59756;SDS011;45631;51.962;5.974;2023-03-21T02:07:24;23.48;;;15.23;;
59756;SDS011;45631;51.962;5.974;2023-03-21T02:09:58;23.08;;;15.85;;
59756;SDS011;45631;51.962;5.974;2023-03-21T02:12:29;23.98;;;15.32;;
59756;SDS011;45631;51.962;5.974;2023-03-21T02:15:01;23.90;;;15.77;;
59756;SDS011;45631;51.962;5.974;2023-03-21T02:17:31;26.23;;;16.25;;
59756;SDS011;45631;51.962;5.974;2023-03-21T02:32:58;27.58;;;17.65;;
59756;SDS011;45631;51.962;5.974;2023-03-21T02:35:54;29.05;;;17.50;;
59756;SDS011;45631;51.962;5.974;2023-03-21T02:38:44;29.75;;;17.52;;
59756;SDS011;45631;51.962;5.974;2023-03-21T02:41:20;27.50;;;17.42;;
59756;SDS011;45631;51.962;5.974;2023-03-21T02:44:06;30.75;;;18.95;;
59756;SDS011;45631;51.962;5.974;2023-03-21T02:46:43;28.58;;;17.92;;
59756;SDS011;45631;51.962;5.974;2023-03-21T02:49:32;26.90;;;17.42;;
59756;SDS011;45631;51.962;5.974;2023-03-21T02:52:09;28.08;;;17.20;;
59756;SDS011;45631;51.962;5.974;2023-03-21T02:54:55;25.05;;;16.80;;
59756;SDS011;45631;51.962;5.974;2023-03-21T02:57:25;27.30;;;17.98;;
59756;SDS011;45631;51.962;5.974;2023-03-21T03:00:08;24.50;;;16.58;;
59756;SDS011;45631;51.962;5.974;2023-03-21T03:02:43;24.23;;;15.80;;
59756;SDS011;45631;51.962;5.974;2023-03-21T03:05:15;24.83;;;17.13;;
59756;SDS011;45631;51.962;5.974;2023-03-21T03:07:51;24.15;;;17.08;;
59756;SDS011;45631;51.962;5.974;2023-03-21T03:10:40;24.42;;;16.50;;
59756;SDS011;45631;51.962;5.974;2023-03-21T03:13:20;25.83;;;16.58;;
59756;SDS011;45631;51.962;5.974;2023-03-21T03:16:03;22.73;;;14.93;;
59756;SDS011;45631;51.962;5.974;2023-03-21T03:18:45;24.48;;;15.50;;
59756;SDS011;45631;51.962;5.974;2023-03-21T03:21:19;27.00;;;16.67;;
59756;SDS011;45631;51.962;5.974;2023-03-21T03:23:51;26.48;;;16.98;;
59756;SDS011;45631;51.962;5.974;2023-03-21T03:26:24;23.90;;;16.60;;
59756;SDS011;45631;51.962;5.974;2023-03-21T03:28:57;24.92;;;16.13;;
59756;SDS011;45631;51.962;5.974;2023-03-21T03:31:31;26.08;;;16.05;;
59756;SDS011;45631;51.962;5.974;2023-03-21T03:34:03;24.95;;;16.30;;
59756;SDS011;45631;51.962;5.974;2023-03-21T03:36:36;25.08;;;16.75;;
59756;SDS011;45631;51.962;5.974;2023-03-21T03:41:42;25.92;;;14.90;;
59756;SDS011;45631;51.962;5.974;2023-03-21T03:44:33;28.95;;;16.17;;
59756;SDS011;45631;51.962;5.974;2023-03-21T03:47:03;25.65;;;15.02;;
59756;SDS011;45631;51.962;5.974;2023-03-21T03:49:40;26.35;;;15.10;;
59756;SDS011;45631;51.962;5.974;2023-03-21T03:52:15;25.92;;;14.65;;
59756;SDS011;45631;51.962;5.974;2023-03-21T03:54:48;26.17;;;14.15;;
59756;SDS011;45631;51.962;5.974;2023-03-21T03:57:19;28.58;;;14.30;;
59756;SDS011;45631;51.962;5.974;2023-03-21T03:59:48;25.13;;;13.27;;
59756;SDS011;45631;51.962;5.974;2023-03-21T04:02:17;23.67;;;13.25;;
59756;SDS011;45631;51.962;5.974;2023-03-21T04:04:46;26.42;;;12.75;;
59756;SDS011;45631;51.962;5.974;2023-03-21T04:07:18;27.23;;;13.13;;
59756;SDS011;45631;51.962;5.974;2023-03-21T04:09:48;24.63;;;12.85;;
59756;SDS011;45631;51.962;5.974;2023-03-21T04:12:19;20.85;;;11.98;;
59756;SDS011;45631;51.962;5.974;2023-03-21T04:14:47;20.40;;;11.80;;
59756;SDS011;45631;51.962;5.974;2023-03-21T04:17:18;25.77;;;13.38;;
59756;SDS011;45631;51.962;5.974;2023-03-21T04:19:47;20.50;;;11.52;;
59756;SDS011;45631;51.962;5.974;2023-03-21T04:22:23;20.23;;;11.80;;
59756;SDS011;45631;51.962;5.974;2023-03-21T04:24:52;18.70;;;11.40;;
59756;SDS011;45631;51.962;5.974;2023-03-21T04:27:23;21.38;;;11.23;;
59756;SDS011;45631;51.962;5.974;2023-03-21T04:29:51;23.83;;;11.27;;
59756;SDS011;45631;51.962;5.974;2023-03-21T04:32:21;21.83;;;11.88;;
59756;SDS011;45631;51.962;5.974;2023-03-21T04:34:50;21.98;;;10.90;;
59756;SDS011;45631;51.962;5.974;2023-03-21T04:37:20;18.88;;;10.95;;
59756;SDS011;45631;51.962;5.974;2023-03-21T04:39:49;21.48;;;11.13;;
59756;SDS011;45631;51.962;5.974;2023-03-21T04:42:18;20.63;;;11.23;;
59756;SDS011;45631;51.962;5.974;2023-03-21T04:44:48;23.00;;;11.70;;
59756;SDS011;45631;51.962;5.974;2023-03-21T04:47:17;22.27;;;10.82;;
59756;SDS011;45631;51.962;5.974;2023-03-21T04:49:47;24.65;;;11.10;;
59756;SDS011;45631;51.962;5.974;2023-03-21T04:52:16;25.02;;;11.45;;
59756;SDS011;45631;51.962;5.974;2023-03-21T04:54:44;27.10;;;11.75;;
59756;SDS011;45631;51.962;5.974;2023-03-21T04:57:13;20.63;;;12.10;;
59756;SDS011;45631;51.962;5.974;2023-03-21T04:59:42;20.33;;;11.75;;
59756;SDS011;45631;51.962;5.974;2023-03-21T05:02:14;19.13;;;11.27;;
59756;SDS011;45631;51.962;5.974;2023-03-21T05:04:42;22.50;;;11.68;;
59756;SDS011;45631;51.962;5.974;2023-03-21T05:07:11;21.08;;;12.23;;
59756;SDS011;45631;51.962;5.974;2023-03-21T05:09:39;22.08;;;12.13;;
59756;SDS011;45631;51.962;5.974;2023-03-21T05:12:08;21.83;;;12.65;;
59756;SDS011;45631;51.962;5.974;2023-03-21T05:14:36;21.67;;;12.32;;
59756;SDS011;45631;51.962;5.974;2023-03-21T05:17:05;24.17;;;11.88;;
59756;SDS011;45631;51.962;5.974;2023-03-21T05:19:37;24.60;;;12.32;;
59756;SDS011;45631;51.962;5.974;2023-03-21T05:22:07;20.95;;;11.95;;
59756;SDS011;45631;51.962;5.974;2023-03-21T05:24:36;20.67;;;12.05;;
59756;SDS011;45631;51.962;5.974;2023-03-21T05:27:07;25.75;;;12.32;;
59756;SDS011;45631;51.962;5.974;2023-03-21T05:29:36;22.65;;;12.32;;
59756;SDS011;45631;51.962;5.974;2023-03-21T05:32:04;23.83;;;12.00;;
59756;SDS011;45631;51.962;5.974;2023-03-21T05:34:33;22.55;;;12.40;;
59756;SDS011;45631;51.962;5.974;2023-03-21T05:37:02;19.50;;;11.52;;
59756;SDS011;45631;51.962;5.974;2023-03-21T05:39:31;25.38;;;12.48;;
59756;SDS011;45631;51.962;5.974;2023-03-21T05:41:59;20.83;;;12.02;;
59756;SDS011;45631;51.962;5.974;2023-03-21T05:44:28;22.48;;;11.75;;
59756;SDS011;45631;51.962;5.974;2023-03-21T05:46:56;24.23;;;11.57;;
59756;SDS011;45631;51.962;5.974;2023-03-21T05:49:25;19.40;;;11.30;;
59756;SDS011;45631;51.962;5.974;2023-03-21T05:51:53;18.13;;;10.82;;
59756;SDS011;45631;51.962;5.974;2023-03-21T05:54:23;21.58;;;10.45;;
59756;SDS011;45631;51.962;5.974;2023-03-21T05:56:53;21.10;;;10.70;;
59756;SDS011;45631;51.962;5.974;2023-03-21T05:59:21;22.73;;;11.13;;
59756;SDS011;45631;51.962;5.974;2023-03-21T06:01:50;23.65;;;11.90;;
59756;SDS011;45631;51.962;5.974;2023-03-21T06:04:18;20.65;;;10.55;;
59756;SDS011;45631;51.962;5.974;2023-03-21T06:06:46;20.70;;;10.50;;
59756;SDS011;45631;51.962;5.974;2023-03-21T06:09:16;20.17;;;10.52;;
59756;SDS011;45631;51.962;5.974;2023-03-21T06:11:47;21.25;;;10.52;;
59756;SDS011;45631;51.962;5.974;2023-03-21T06:14:17;20.58;;;9.82;;
59756;SDS011;45631;51.962;5.974;2023-03-21T06:16:49;22.90;;;11.18;;
59756;SDS011;45631;51.962;5.974;2023-03-21T06:19:19;22.27;;;11.25;;
59756;SDS011;45631;51.962;5.974;2023-03-21T06:21:48;21.33;;;11.30;;
59756;SDS011;45631;51.962;5.974;2023-03-21T06:24:17;19.85;;;10.82;;
59756;SDS011;45631;51.962;5.974;2023-03-21T06:26:47;22.40;;;11.57;;
59756;SDS011;45631;51.962;5.974;2023-03-21T06:29:15;24.60;;;10.82;;
59756;SDS011;45631;51.962;5.974;2023-03-21T06:31:44;23.50;;;11.00;;
59756;SDS011;45631;51.962;5.974;2023-03-21T06:34:12;22.55;;;11.13;;
59756;SDS011;45631;51.962;5.974;2023-03-21T06:36:41;22.20;;;11.05;;
59756;SDS011;45631;51.962;5.974;2023-03-21T06:39:10;22.35;;;10.55;;
59756;SDS011;45631;51.962;5.974;2023-03-21T06:41:39;20.27;;;11.43;;
59756;SDS011;45631;51.962;5.974;2023-03-21T06:44:09;26.38;;;12.13;;
59756;SDS011;45631;51.962;5.974;2023-03-21T06:46:38;23.23;;;11.07;;
59756;SDS011;45631;51.962;5.974;2023-03-21T06:49:06;19.88;;;10.45;;
59756;SDS011;45631;51.962;5.974;2023-03-21T06:51:35;20.52;;;10.82;;
59756;SDS011;45631;51.962;5.974;2023-03-21T06:54:04;23.38;;;11.05;;
59756;SDS011;45631;51.962;5.974;2023-03-21T06:56:32;21.00;;;10.63;;
59756;SDS011;45631;51.962;5.974;2023-03-21T06:59:01;18.92;;;10.93;;
59756;SDS011;45631;51.962;5.974;2023-03-21T07:01:31;20.58;;;10.75;;
59756;SDS011;45631;51.962;5.974;2023-03-21T07:03:59;24.58;;;11.10;;
59756;SDS011;45631;51.962;5.974;2023-03-21T07:06:28;22.25;;;11.10;;
59756;SDS011;45631;51.962;5.974;2023-03-21T07:08:57;21.17;;;10.93;;
59756;SDS011;45631;51.962;5.974;2023-03-21T07:11:26;23.23;;;10.48;;
59756;SDS011;45631;51.962;5.974;2023-03-21T07:13:54;24.33;;;10.98;;
59756;SDS011;45631;51.962;5.974;2023-03-21T07:16:23;22.33;;;10.18;;
59756;SDS011;45631;51.962;5.974;2023-03-21T07:18:53;19.35;;;10.43;;
59756;SDS011;45631;51.962;5.974;2023-03-21T07:21:22;22.83;;;10.02;;
59756;SDS011;45631;51.962;5.974;2023-03-21T07:23:50;25.33;;;11.65;;
59756;SDS011;45631;51.962;5.974;2023-03-21T07:26:19;21.50;;;9.88;;
59756;SDS011;45631;51.962;5.974;2023-03-21T07:28:48;16.73;;;10.13;;
59756;SDS011;45631;51.962;5.974;2023-03-21T07:31:16;18.05;;;9.02;;
59756;SDS011;45631;51.962;5.974;2023-03-21T07:33:45;19.33;;;9.57;;
59756;SDS011;45631;51.962;5.974;2023-03-21T07:36:15;20.20;;;10.32;;
59756;SDS011;45631;51.962;5.974;2023-03-21T07:38:44;22.10;;;9.95;;
59756;SDS011;45631;51.962;5.974;2023-03-21T07:41:13;20.35;;;8.98;;
59756;SDS011;45631;51.962;5.974;2023-03-21T07:43:46;16.77;;;8.80;;
59756;SDS011;45631;51.962;5.974;2023-03-21T07:46:15;17.08;;;8.60;;
59756;SDS011;45631;51.962;5.974;2023-03-21T07:48:43;17.77;;;8.15;;
59756;SDS011;45631;51.962;5.974;2023-03-21T07:51:12;17.05;;;8.38;;
59756;SDS011;45631;51.962;5.974;2023-03-21T07:53:42;13.60;;;7.72;;
59756;SDS011;45631;51.962;5.974;2023-03-21T07:56:14;17.40;;;7.88;;
59756;SDS011;45631;51.962;5.974;2023-03-21T07:58:42;19.92;;;8.02;;
59756;SDS011;45631;51.962;5.974;2023-03-21T08:01:11;16.67;;;7.75;;
59756;SDS011;45631;51.962;5.974;2023-03-21T08:03:39;21.58;;;8.98;;
59756;SDS011;45631;51.962;5.974;2023-03-21T08:06:09;16.55;;;8.25;;
59756;SDS011;45631;51.962;5.974;2023-03-21T08:08:38;17.65;;;8.18;;
59756;SDS011;45631;51.962;5.974;2023-03-21T08:11:09;18.65;;;8.82;;
59756;SDS011;45631;51.962;5.974;2023-03-21T08:13:38;18.70;;;8.25;;
59756;SDS011;45631;51.962;5.974;2023-03-21T08:16:07;16.67;;;7.68;;
59756;SDS011;45631;51.962;5.974;2023-03-21T08:18:36;18.60;;;8.98;;
59756;SDS011;45631;51.962;5.974;2023-03-21T08:21:05;21.65;;;8.30;;
59756;SDS011;45631;51.962;5.974;2023-03-21T08:23:35;18.15;;;8.85;;
59756;SDS011;45631;51.962;5.974;2023-03-21T08:26:04;18.60;;;8.32;;
59756;SDS011;45631;51.962;5.974;2023-03-21T08:28:34;13.93;;;7.32;;
59756;SDS011;45631;51.962;5.974;2023-03-21T08:31:05;19.10;;;7.40;;
59756;SDS011;45631;51.962;5.974;2023-03-21T08:33:34;20.20;;;8.25;;
59756;SDS011;45631;51.962;5.974;2023-03-21T08:36:04;17.25;;;8.15;;
59756;SDS011;45631;51.962;5.974;2023-03-21T08:38:33;19.77;;;8.45;;
59756;SDS011;45631;51.962;5.974;2023-03-21T08:41:02;22.70;;;8.75;;
59756;SDS011;45631;51.962;5.974;2023-03-21T08:43:31;20.33;;;9.23;;
59756;SDS011;45631;51.962;5.974;2023-03-21T08:46:01;19.00;;;8.38;;
59756;SDS011;45631;51.962;5.974;2023-03-21T08:48:30;21.45;;;8.57;;
59756;SDS011;45631;51.962;5.974;2023-03-21T08:50:59;17.50;;;7.82;;
59756;SDS011;45631;51.962;5.974;2023-03-21T08:53:27;18.27;;;7.53;;
59756;SDS011;45631;51.962;5.974;2023-03-21T08:55:56;14.18;;;7.18;;
59756;SDS011;45631;51.962;5.974;2023-03-21T08:58:24;15.60;;;7.43;;
59756;SDS011;45631;51.962;5.974;2023-03-21T09:00:53;15.10;;;7.60;;
59756;SDS011;45631;51.962;5.974;2023-03-21T09:03:23;12.35;;;7.03;;
59756;SDS011;45631;51.962;5.974;2023-03-21T09:05:53;17.40;;;7.60;;
59756;SDS011;45631;51.962;5.974;2023-03-21T09:08:21;17.15;;;7.43;;
59756;SDS011;45631;51.962;5.974;2023-03-21T09:10:51;17.70;;;8.38;;
59756;SDS011;45631;51.962;5.974;2023-03-21T09:13:20;20.77;;;7.88;;
59756;SDS011;45631;51.962;5.974;2023-03-21T09:15:49;19.52;;;8.93;;
59756;SDS011;45631;51.962;5.974;2023-03-21T09:18:18;14.25;;;7.53;;
59756;SDS011;45631;51.962;5.974;2023-03-21T09:21:08;16.63;;;6.93;;
59756;SDS011;45631;51.962;5.974;2023-03-21T09:23:38;16.38;;;8.18;;
59756;SDS011;45631;51.962;5.974;2023-03-21T09:26:07;16.17;;;8.18;;
59756;SDS011;45631;51.962;5.974;2023-03-21T09:28:36;16.63;;;8.10;;
59756;SDS011;45631;51.962;5.974;2023-03-21T09:31:05;20.27;;;8.63;;
59756;SDS011;45631;51.962;5.974;2023-03-21T09:33:37;15.05;;;7.60;;
59756;SDS011;45631;51.962;5.974;2023-03-21T09:36:09;17.52;;;7.95;;
59756;SDS011;45631;51.962;5.974;2023-03-21T09:38:40;13.77;;;7.85;;
59756;SDS011;45631;51.962;5.974;2023-03-21T09:41:15;14.82;;;8.00;;
59756;SDS011;45631;51.962;5.974;2023-03-21T09:43:57;18.45;;;8.25;;
59756;SDS011;45631;51.962;5.974;2023-03-21T09:46:40;13.75;;;6.90;;
59756;SDS011;45631;51.962;5.974;2023-03-21T09:49:14;15.80;;;8.25;;
59756;SDS011;45631;51.962;5.974;2023-03-21T09:51:48;16.77;;;7.28;;
59756;SDS011;45631;51.962;5.974;2023-03-21T09:54:20;16.35;;;7.70;;
59756;SDS011;45631;51.962;5.974;2023-03-21T09:56:52;14.75;;;7.50;;
59756;SDS011;45631;51.962;5.974;2023-03-21T09:59:25;14.63;;;7.50;;
59756;SDS011;45631;51.962;5.974;2023-03-21T10:02:02;14.48;;;8.05;;
59756;SDS011;45631;51.962;5.974;2023-03-21T10:04:31;19.05;;;8.45;;
59756;SDS011;45631;51.962;5.974;2023-03-21T10:07:04;18.88;;;8.95;;
59756;SDS011;45631;51.962;5.974;2023-03-21T10:09:33;19.55;;;8.95;;
59756;SDS011;45631;51.962;5.974;2023-03-21T10:12:04;16.80;;;8.48;;
59756;SDS011;45631;51.962;5.974;2023-03-21T10:14:35;19.20;;;9.70;;
59756;SDS011;45631;51.962;5.974;2023-03-21T10:19:54;18.65;;;8.88;;
59756;SDS011;45631;51.962;5.974;2023-03-21T10:22:39;21.50;;;8.98;;
59756;SDS011;45631;51.962;5.974;2023-03-21T10:25:10;17.98;;;9.13;;
59756;SDS011;45631;51.962;5.974;2023-03-21T10:27:44;14.80;;;8.07;;
59756;SDS011;45631;51.962;5.974;2023-03-21T10:30:17;15.60;;;7.90;;
59756;SDS011;45631;51.962;5.974;2023-03-21T10:32:52;15.95;;;7.80;;
59756;SDS011;45631;51.962;5.974;2023-03-21T10:35:25;11.48;;;7.25;;
59756;SDS011;45631;51.962;5.974;2023-03-21T10:37:55;13.52;;;7.30;;
59756;SDS011;45631;51.962;5.974;2023-03-21T10:40:23;15.80;;;7.20;;
59756;SDS011;45631;51.962;5.974;2023-03-21T10:42:53;13.85;;;7.35;;
59756;SDS011;45631;51.962;5.974;2023-03-21T10:45:23;15.85;;;7.20;;
59756;SDS011;45631;51.962;5.974;2023-03-21T10:47:54;13.65;;;7.28;;
59756;SDS011;45631;51.962;5.974;2023-03-21T10:50:24;17.70;;;8.02;;
59756;SDS011;45631;51.962;5.974;2023-03-21T10:52:58;14.82;;;6.82;;
59756;SDS011;45631;51.962;5.974;2023-03-21T10:55:28;15.05;;;6.95;;
59756;SDS011;45631;51.962;5.974;2023-03-21T10:57:59;14.13;;;7.28;;
59756;SDS011;45631;51.962;5.974;2023-03-21T11:00:34;15.10;;;6.55;;
59756;SDS011;45631;51.962;5.974;2023-03-21T11:03:12;13.02;;;7.15;;
59756;SDS011;45631;51.962;5.974;2023-03-21T11:05:51;13.63;;;6.50;;
59756;SDS011;45631;51.962;5.974;2023-03-21T11:08:23;15.25;;;6.93;;
59756;SDS011;45631;51.962;5.974;2023-03-21T11:10:53;17.80;;;6.93;;
59756;SDS011;45631;51.962;5.974;2023-03-21T11:13:32;12.15;;;6.88;;
59756;SDS011;45631;51.962;5.974;2023-03-21T11:16:04;13.38;;;6.57;;
59756;SDS011;45631;51.962;5.974;2023-03-21T11:18:39;15.73;;;6.85;;
59756;SDS011;45631;51.962;5.974;2023-03-21T11:21:09;12.32;;;6.20;;
59756;SDS011;45631;51.962;5.974;2023-03-21T11:23:41;11.18;;;6.32;;
59756;SDS011;45631;51.962;5.974;2023-03-21T11:26:15;12.77;;;6.32;;
59756;SDS011;45631;51.962;5.974;2023-03-21T11:28:49;14.18;;;6.40;;
59756;SDS011;45631;51.962;5.974;2023-03-21T11:31:18;16.48;;;6.30;;
59756;SDS011;45631;51.962;5.974;2023-03-21T11:33:51;13.47;;;6.67;;
59756;SDS011;45631;51.962;5.974;2023-03-21T11:36:25;13.90;;;5.95;;
59756;SDS011;45631;51.962;5.974;2023-03-21T11:39:11;14.70;;;6.13;;
59756;SDS011;45631;51.962;5.974;2023-03-21T11:41:42;15.05;;;6.13;;
59756;SDS011;45631;51.962;5.974;2023-03-21T11:44:28;13.02;;;6.50;;
59756;SDS011;45631;51.962;5.974;2023-03-21T11:47:00;12.23;;;5.45;;
59756;SDS011;45631;51.962;5.974;2023-03-21T11:49:29;13.98;;;6.28;;
59756;SDS011;45631;51.962;5.974;2023-03-21T11:52:03;11.30;;;5.90;;
59756;SDS011;45631;51.962;5.974;2023-03-21T11:54:45;12.30;;;5.47;;
59756;SDS011;45631;51.962;5.974;2023-03-21T11:57:30;13.00;;;5.18;;
59756;SDS011;45631;51.962;5.974;2023-03-21T12:00:10;10.30;;;5.07;;
59756;SDS011;45631;51.962;5.974;2023-03-21T12:02:50;14.02;;;5.55;;
59756;SDS011;45631;51.962;5.974;2023-03-21T12:05:51;12.40;;;4.82;;
59756;SDS011;45631;51.962;5.974;2023-03-21T12:08:25;12.57;;;5.45;;
59756;SDS011;45631;51.962;5.974;2023-03-21T12:11:05;10.18;;;5.38;;
59756;SDS011;45631;51.962;5.974;2023-03-21T12:13:46;11.55;;;5.00;;
59756;SDS011;45631;51.962;5.974;2023-03-21T12:16:26;12.13;;;5.83;;
59756;SDS011;45631;51.962;5.974;2023-03-21T12:19:08;10.07;;;5.10;;
59756;SDS011;45631;51.962;5.974;2023-03-21T12:24:21;11.10;;;5.10;;
59756;SDS011;45631;51.962;5.974;2023-03-21T12:26:57;13.40;;;4.97;;
59756;SDS011;45631;51.962;5.974;2023-03-21T12:29:41;13.80;;;5.97;;
59756;SDS011;45631;51.962;5.974;2023-03-21T12:32:27;12.52;;;5.47;;
59756;SDS011;45631;51.962;5.974;2023-03-21T12:35:15;10.23;;;5.18;;
59756;SDS011;45631;51.962;5.974;2023-03-21T12:37:56;12.25;;;4.88;;
59756;SDS011;45631;51.962;5.974;2023-03-21T12:40:36;11.52;;;5.15;;
59756;SDS011;45631;51.962;5.974;2023-03-21T12:43:23;11.25;;;5.00;;
59756;SDS011;45631;51.962;5.974;2023-03-21T12:46:01;12.73;;;5.45;;
59756;SDS011;45631;51.962;5.974;2023-03-21T12:48:35;11.60;;;4.95;;
59756;SDS011;45631;51.962;5.974;2023-03-21T12:51:10;11.63;;;5.03;;
59756;SDS011;45631;51.962;5.974;2023-03-21T12:53:51;9.30;;;4.93;;
59756;SDS011;45631;51.962;5.974;2023-03-21T12:56:26;12.32;;;5.28;;
59756;SDS011;45631;51.962;5.974;2023-03-21T12:59:01;11.40;;;4.97;;
59756;SDS011;45631;51.962;5.974;2023-03-21T13:01:38;12.73;;;5.78;;
59756;SDS011;45631;51.962;5.974;2023-03-21T13:04:15;14.80;;;5.50;;
59756;SDS011;45631;51.962;5.974;2023-03-21T13:06:59;11.40;;;5.20;;
59756;SDS011;45631;51.962;5.974;2023-03-21T13:09:32;10.17;;;5.30;;
59756;SDS011;45631;51.962;5.974;2023-03-21T13:12:06;12.85;;;5.10;;
59756;SDS011;45631;51.962;5.974;2023-03-21T13:14:51;12.02;;;5.55;;
59756;SDS011;45631;51.962;5.974;2023-03-21T13:17:36;13.35;;;5.35;;
59756;SDS011;45631;51.962;5.974;2023-03-21T13:20:12;12.10;;;5.03;;
59756;SDS011;45631;51.962;5.974;2023-03-21T13:22:49;13.73;;;5.38;;
59756;SDS011;45631;51.962;5.974;2023-03-21T13:25:18;12.20;;;5.40;;
59756;SDS011;45631;51.962;5.974;2023-03-21T13:27:51;11.63;;;5.30;;
59756;SDS011;45631;51.962;5.974;2023-03-21T13:30:23;13.40;;;6.05;;
59756;SDS011;45631;51.962;5.974;2023-03-21T13:32:54;12.88;;;5.75;;
59756;SDS011;45631;51.962;5.974;2023-03-21T13:35:34;11.45;;;5.13;;
59756;SDS011;45631;51.962;5.974;2023-03-21T13:38:05;12.47;;;5.33;;
59756;SDS011;45631;51.962;5.974;2023-03-21T13:40:42;10.32;;;5.07;;
59756;SDS011;45631;51.962;5.974;2023-03-21T13:43:31;10.30;;;5.00;;
59756;SDS011;45631;51.962;5.974;2023-03-21T13:46:06;9.98;;;4.22;;
59756;SDS011;45631;51.962;5.974;2023-03-21T13:48:41;10.05;;;4.53;;
59756;SDS011;45631;51.962;5.974;2023-03-21T13:51:36;8.63;;;3.70;;
59756;SDS011;45631;51.962;5.974;2023-03-21T13:54:16;11.82;;;4.03;;
59756;SDS011;45631;51.962;5.974;2023-03-21T13:56:51;9.55;;;3.75;;
59756;SDS011;45631;51.962;5.974;2023-03-21T13:59:34;7.63;;;3.67;;
59756;SDS011;45631;51.962;5.974;2023-03-21T14:02:21;11.57;;;4.57;;
59756;SDS011;45631;51.962;5.974;2023-03-21T14:04:57;11.05;;;4.40;;
59756;SDS011;45631;51.962;5.974;2023-03-21T14:07:33;8.95;;;4.00;;
59756;SDS011;45631;51.962;5.974;2023-03-21T14:10:03;10.10;;;3.80;;
59756;SDS011;45631;51.962;5.974;2023-03-21T14:12:36;9.90;;;3.85;;
59756;SDS011;45631;51.962;5.974;2023-03-21T14:15:07;10.27;;;3.92;;
59756;SDS011;45631;51.962;5.974;2023-03-21T14:17:52;9.75;;;4.28;;
59756;SDS011;45631;51.962;5.974;2023-03-21T14:20:22;10.30;;;4.10;;
59756;SDS011;45631;51.962;5.974;2023-03-21T14:22:53;9.05;;;4.18;;
59756;SDS011;45631;51.962;5.974;2023-03-21T14:25:22;15.55;;;4.80;;
59756;SDS011;45631;51.962;5.974;2023-03-21T14:27:59;13.65;;;5.07;;
59756;SDS011;45631;51.962;5.974;2023-03-21T14:30:31;10.00;;;4.47;;
59756;SDS011;45631;51.962;5.974;2023-03-21T14:33:07;13.40;;;5.13;;
59756;SDS011;45631;51.962;5.974;2023-03-21T14:35:43;8.45;;;3.60;;
59756;SDS011;45631;51.962;5.974;2023-03-21T14:38:18;8.05;;;4.28;;
59756;SDS011;45631;51.962;5.974;2023-03-21T14:40:49;10.88;;;4.57;;
59756;SDS011;45631;51.962;5.974;2023-03-21T14:43:19;9.85;;;4.43;;
59756;SDS011;45631;51.962;5.974;2023-03-21T14:45:50;8.38;;;4.25;;
59756;SDS011;45631;51.962;5.974;2023-03-21T14:48:28;10.83;;;4.20;;
59756;SDS011;45631;51.962;5.974;2023-03-21T14:51:00;9.40;;;3.88;;
59756;SDS011;45631;51.962;5.974;2023-03-21T14:53:30;10.02;;;4.38;;
59756;SDS011;45631;51.962;5.974;2023-03-21T14:56:05;10.10;;;4.10;;
59756;SDS011;45631;51.962;5.974;2023-03-21T14:58:36;10.00;;;3.53;;
59756;SDS011;45631;51.962;5.974;2023-03-21T15:01:11;9.85;;;3.97;;
59756;SDS011;45631;51.962;5.974;2023-03-21T15:03:44;10.15;;;4.35;;
59756;SDS011;45631;51.962;5.974;2023-03-21T15:06:14;10.15;;;4.38;;
59756;SDS011;45631;51.962;5.974;2023-03-21T15:08:52;8.48;;;3.75;;
59756;SDS011;45631;51.962;5.974;2023-03-21T15:11:27;9.23;;;3.95;;
59756;SDS011;45631;51.962;5.974;2023-03-21T15:13:57;8.70;;;4.20;;
59756;SDS011;45631;51.962;5.974;2023-03-21T15:16:28;9.20;;;4.10;;
59756;SDS011;45631;51.962;5.974;2023-03-21T15:19:01;11.18;;;3.65;;
59756;SDS011;45631;51.962;5.974;2023-03-21T15:21:33;7.93;;;3.80;;
59756;SDS011;45631;51.962;5.974;2023-03-21T15:24:05;8.68;;;3.47;;